sensor_id;sensor_type;location;lat;lon;timestamp;temperature;humidity
19536;HTU21D;9913;51.168;4.124;2023-02-28T00:01:42;0.48;80.85
19536;HTU21D;9913;51.168;4.124;2023-02-28T00:04:12;0.39;80.61
19536;HTU21D;9913;51.168;4.124;2023-02-28T00:06:40;0.38;80.11
19536;HTU21D;9913;51.168;4.124;2023-02-28T00:09:09;0.30;80.27
19536;HTU21D;9913;51.168;4.124;2023-02-28T00:11:37;0.21;79.96
19536;HTU21D;9913;51.168;4.124;2023-02-28T00:14:05;0.12;79.84
19536;HTU21D;9913;51.168;4.124;2023-02-28T00:16:34;0.01;79.37
19536;HTU21D;9913;51.168;4.124;2023-02-28T00:19:02;-0.11;79.00
19536;HTU21D;9913;51.168;4.124;2023-02-28T00:21:32;-0.19;78.29
19536;HTU21D;9913;51.168;4.124;2023-02-28T00:24:00;-0.22;78.53
19536;HTU21D;9913;51.168;4.124;2023-02-28T00:26:28;-0.16;78.65
19536;HTU21D;9913;51.168;4.124;2023-02-28T00:28:57;-0.14;78.66
19536;HTU21D;9913;51.168;4.124;2023-02-28T00:31:25;-0.14;78.62
19536;HTU21D;9913;51.168;4.124;2023-02-28T00:33:54;-0.15;78.61
19536;HTU21D;9913;51.168;4.124;2023-02-28T00:36:22;-0.22;78.47
19536;HTU21D;9913;51.168;4.124;2023-02-28T00:38:52;-0.17;78.08
19536;HTU21D;9913;51.168;4.124;2023-02-28T00:41:20;-0.21;78.02
19536;HTU21D;9913;51.168;4.124;2023-02-28T00:43:48;-0.26;78.18
19536;HTU21D;9913;51.168;4.124;2023-02-28T00:46:17;-0.31;77.50
19536;HTU21D;9913;51.168;4.124;2023-02-28T00:48:45;-0.37;76.70
19536;HTU21D;9913;51.168;4.124;2023-02-28T00:51:14;-0.46;76.34
19536;HTU21D;9913;51.168;4.124;2023-02-28T00:53:42;-0.55;75.78
19536;HTU21D;9913;51.168;4.124;2023-02-28T00:56:11;-0.59;74.62
19536;HTU21D;9913;51.168;4.124;2023-02-28T00:58:40;-0.64;73.90
19536;HTU21D;9913;51.168;4.124;2023-02-28T01:01:08;-0.69;73.99
19536;HTU21D;9913;51.168;4.124;2023-02-28T01:03:37;-0.70;73.32
19536;HTU21D;9913;51.168;4.124;2023-02-28T01:06:06;-0.72;73.22
19536;HTU21D;9913;51.168;4.124;2023-02-28T01:08:34;-0.75;72.96
19536;HTU21D;9913;51.168;4.124;2023-02-28T01:11:08;-0.80;72.13
19536;HTU21D;9913;51.168;4.124;2023-02-28T01:13:38;-0.87;72.08
19536;HTU21D;9913;51.168;4.124;2023-02-28T01:16:06;-0.85;71.80
19536;HTU21D;9913;51.168;4.124;2023-02-28T01:18:35;-0.80;71.80
19536;HTU21D;9913;51.168;4.124;2023-02-28T01:21:04;-0.74;72.16
19536;HTU21D;9913;51.168;4.124;2023-02-28T01:23:33;-0.75;72.22
19536;HTU21D;9913;51.168;4.124;2023-02-28T01:26:06;-0.72;72.44
19536;HTU21D;9913;51.168;4.124;2023-02-28T01:28:40;-0.77;72.41
19536;HTU21D;9913;51.168;4.124;2023-02-28T01:31:09;-0.80;72.42
19536;HTU21D;9913;51.168;4.124;2023-02-28T01:33:38;-0.86;72.50
19536;HTU21D;9913;51.168;4.124;2023-02-28T01:36:09;-0.89;72.49
19536;HTU21D;9913;51.168;4.124;2023-02-28T01:38:38;-0.93;71.95
19536;HTU21D;9913;51.168;4.124;2023-02-28T01:41:07;-0.87;71.95
19536;HTU21D;9913;51.168;4.124;2023-02-28T01:43:57;-0.89;71.70
19536;HTU21D;9913;51.168;4.124;2023-02-28T01:46:25;-0.90;71.57
19536;HTU21D;9913;51.168;4.124;2023-02-28T01:48:59;-0.94;71.53
19536;HTU21D;9913;51.168;4.124;2023-02-28T01:51:33;-0.94;70.80
19536;HTU21D;9913;51.168;4.124;2023-02-28T01:54:06;-0.97;70.94
19536;HTU21D;9913;51.168;4.124;2023-02-28T01:56:43;-1.05;70.91
19536;HTU21D;9913;51.168;4.124;2023-02-28T01:59:19;-1.09;69.87
19536;HTU21D;9913;51.168;4.124;2023-02-28T02:01:49;-1.09;69.13
19536;HTU21D;9913;51.168;4.124;2023-02-28T02:04:19;-1.13;68.67
19536;HTU21D;9913;51.168;4.124;2023-02-28T02:06:49;-1.14;68.39
19536;HTU21D;9913;51.168;4.124;2023-02-28T02:09:17;-1.11;67.97
19536;HTU21D;9913;51.168;4.124;2023-02-28T02:11:46;-1.10;67.78
19536;HTU21D;9913;51.168;4.124;2023-02-28T02:14:35;-1.09;67.49
19536;HTU21D;9913;51.168;4.124;2023-02-28T02:17:16;-1.09;67.23
19536;HTU21D;9913;51.168;4.124;2023-02-28T02:20:37;-1.08;67.07
19536;HTU21D;9913;51.168;4.124;2023-02-28T02:23:40;-1.17;66.81
19536;HTU21D;9913;51.168;4.124;2023-02-28T02:26:42;-1.20;66.59
19536;HTU21D;9913;51.168;4.124;2023-02-28T02:35:30;-1.27;66.32
19536;HTU21D;9913;51.168;4.124;2023-02-28T02:38:03;-1.33;66.17
19536;HTU21D;9913;51.168;4.124;2023-02-28T02:40:38;-1.27;65.94
19536;HTU21D;9913;51.168;4.124;2023-02-28T02:43:13;-1.25;66.01
19536;HTU21D;9913;51.168;4.124;2023-02-28T02:45:46;-1.17;65.88
19536;HTU21D;9913;51.168;4.124;2023-02-28T02:48:19;-1.00;66.06
19536;HTU21D;9913;51.168;4.124;2023-02-28T02:50:54;-0.91;66.07
19536;HTU21D;9913;51.168;4.124;2023-02-28T02:53:27;-0.87;66.04
19536;HTU21D;9913;51.168;4.124;2023-02-28T02:55:59;-0.80;66.27
19536;HTU21D;9913;51.168;4.124;2023-02-28T02:58:34;-0.75;66.24
19536;HTU21D;9913;51.168;4.124;2023-02-28T03:01:11;-0.70;66.37
19536;HTU21D;9913;51.168;4.124;2023-02-28T03:03:40;-0.71;66.38
19536;HTU21D;9913;51.168;4.124;2023-02-28T03:06:10;-0.73;66.36
19536;HTU21D;9913;51.168;4.124;2023-02-28T03:08:38;-0.69;66.28
19536;HTU21D;9913;51.168;4.124;2023-02-28T03:11:11;-0.57;66.34
19536;HTU21D;9913;51.168;4.124;2023-02-28T03:14:01;-0.52;66.36
19536;HTU21D;9913;51.168;4.124;2023-02-28T03:16:35;-0.40;66.75
19536;HTU21D;9913;51.168;4.124;2023-02-28T03:19:26;-0.34;66.59
19536;HTU21D;9913;51.168;4.124;2023-02-28T03:22:14;-0.28;66.69
19536;HTU21D;9913;51.168;4.124;2023-02-28T03:24:50;-0.26;66.69
19536;HTU21D;9913;51.168;4.124;2023-02-28T03:27:25;-0.28;66.83
19536;HTU21D;9913;51.168;4.124;2023-02-28T03:30:00;-0.31;66.56
19536;HTU21D;9913;51.168;4.124;2023-02-28T03:32:34;-0.21;66.88
19536;HTU21D;9913;51.168;4.124;2023-02-28T03:35:07;-0.09;66.94
19536;HTU21D;9913;51.168;4.124;2023-02-28T03:37:40;-0.01;66.97
19536;HTU21D;9913;51.168;4.124;2023-02-28T03:40:13;0.08;67.13
19536;HTU21D;9913;51.168;4.124;2023-02-28T03:42:45;0.19;67.43
19536;HTU21D;9913;51.168;4.124;2023-02-28T03:45:17;0.33;67.35
19536;HTU21D;9913;51.168;4.124;2023-02-28T03:47:51;0.44;67.89
19536;HTU21D;9913;51.168;4.124;2023-02-28T03:50:22;0.46;67.46
19536;HTU21D;9913;51.168;4.124;2023-02-28T03:52:58;0.46;67.25
19536;HTU21D;9913;51.168;4.124;2023-02-28T03:55:34;0.60;67.75
19536;HTU21D;9913;51.168;4.124;2023-02-28T03:58:08;0.62;67.74
19536;HTU21D;9913;51.168;4.124;2023-02-28T04:00:42;0.63;67.56
19536;HTU21D;9913;51.168;4.124;2023-02-28T04:03:13;0.60;67.47
19536;HTU21D;9913;51.168;4.124;2023-02-28T04:05:49;0.66;67.53
19536;HTU21D;9913;51.168;4.124;2023-02-28T04:08:21;0.63;67.74
19536;HTU21D;9913;51.168;4.124;2023-02-28T04:10:53;0.64;67.69
19536;HTU21D;9913;51.168;4.124;2023-02-28T04:13:23;0.68;67.84
19536;HTU21D;9913;51.168;4.124;2023-02-28T04:15:51;0.68;67.92
19536;HTU21D;9913;51.168;4.124;2023-02-28T04:18:19;0.69;67.84
19536;HTU21D;9913;51.168;4.124;2023-02-28T04:20:48;0.68;67.64
19536;HTU21D;9913;51.168;4.124;2023-02-28T04:23:16;0.69;67.78
19536;HTU21D;9913;51.168;4.124;2023-02-28T04:25:45;0.69;67.64
19536;HTU21D;9913;51.168;4.124;2023-02-28T04:28:14;0.69;67.62
19536;HTU21D;9913;51.168;4.124;2023-02-28T04:30:42;0.75;67.80
19536;HTU21D;9913;51.168;4.124;2023-02-28T04:33:10;0.77;67.92
19536;HTU21D;9913;51.168;4.124;2023-02-28T04:35:38;0.81;68.05
19536;HTU21D;9913;51.168;4.124;2023-02-28T04:38:07;0.76;67.76
19536;HTU21D;9913;51.168;4.124;2023-02-28T04:40:35;0.74;67.52
19536;HTU21D;9913;51.168;4.124;2023-02-28T04:43:05;0.73;67.31
19536;HTU21D;9913;51.168;4.124;2023-02-28T04:45:34;0.71;67.55
19536;HTU21D;9913;51.168;4.124;2023-02-28T04:48:03;0.78;67.50
19536;HTU21D;9913;51.168;4.124;2023-02-28T04:50:31;0.78;67.43
19536;HTU21D;9913;51.168;4.124;2023-02-28T04:52:59;0.87;67.58
19536;HTU21D;9913;51.168;4.124;2023-02-28T04:55:28;0.90;67.68
19536;HTU21D;9913;51.168;4.124;2023-02-28T04:57:56;0.90;67.66
19536;HTU21D;9913;51.168;4.124;2023-02-28T05:00:26;0.89;67.52
19536;HTU21D;9913;51.168;4.124;2023-02-28T05:02:54;0.91;67.57
19536;HTU21D;9913;51.168;4.124;2023-02-28T05:05:22;0.93;67.51
19536;HTU21D;9913;51.168;4.124;2023-02-28T05:07:50;0.94;67.52
19536;HTU21D;9913;51.168;4.124;2023-02-28T05:10:20;0.93;67.17
19536;HTU21D;9913;51.168;4.124;2023-02-28T05:12:48;0.96;67.39
19536;HTU21D;9913;51.168;4.124;2023-02-28T05:15:22;0.93;67.10
19536;HTU21D;9913;51.168;4.124;2023-02-28T05:17:52;1.04;67.26
19536;HTU21D;9913;51.168;4.124;2023-02-28T05:20:20;1.05;67.37
19536;HTU21D;9913;51.168;4.124;2023-02-28T05:22:49;1.13;67.49
19536;HTU21D;9913;51.168;4.124;2023-02-28T05:25:20;1.18;67.48
19536;HTU21D;9913;51.168;4.124;2023-02-28T05:27:49;1.17;67.50
19536;HTU21D;9913;51.168;4.124;2023-02-28T05:30:18;1.16;67.29
19536;HTU21D;9913;51.168;4.124;2023-02-28T05:32:50;1.22;67.38
19536;HTU21D;9913;51.168;4.124;2023-02-28T05:35:20;1.21;67.42
19536;HTU21D;9913;51.168;4.124;2023-02-28T05:37:48;1.26;67.46
19536;HTU21D;9913;51.168;4.124;2023-02-28T05:40:17;1.28;67.61
19536;HTU21D;9913;51.168;4.124;2023-02-28T05:42:47;1.29;67.45
19536;HTU21D;9913;51.168;4.124;2023-02-28T05:45:17;1.27;67.44
19536;HTU21D;9913;51.168;4.124;2023-02-28T05:47:46;1.32;67.36
19536;HTU21D;9913;51.168;4.124;2023-02-28T05:50:14;1.31;67.47
19536;HTU21D;9913;51.168;4.124;2023-02-28T05:52:44;1.38;68.00
19536;HTU21D;9913;51.168;4.124;2023-02-28T05:55:16;1.45;67.54
19536;HTU21D;9913;51.168;4.124;2023-02-28T05:57:45;1.45;67.71
19536;HTU21D;9913;51.168;4.124;2023-02-28T06:00:13;1.45;67.94
19536;HTU21D;9913;51.168;4.124;2023-02-28T06:02:44;1.49;67.87
19536;HTU21D;9913;51.168;4.124;2023-02-28T06:05:13;1.47;68.21
19536;HTU21D;9913;51.168;4.124;2023-02-28T06:07:44;1.55;68.17
19536;HTU21D;9913;51.168;4.124;2023-02-28T06:10:13;1.52;67.89
19536;HTU21D;9913;51.168;4.124;2023-02-28T06:12:41;1.53;68.01
19536;HTU21D;9913;51.168;4.124;2023-02-28T06:15:12;1.57;68.18
19536;HTU21D;9913;51.168;4.124;2023-02-28T06:17:41;1.57;68.04
19536;HTU21D;9913;51.168;4.124;2023-02-28T06:20:11;1.57;67.85
19536;HTU21D;9913;51.168;4.124;2023-02-28T06:22:40;1.53;67.90
19536;HTU21D;9913;51.168;4.124;2023-02-28T06:25:11;1.60;67.59
19536;HTU21D;9913;51.168;4.124;2023-02-28T06:27:39;1.64;68.32
19536;HTU21D;9913;51.168;4.124;2023-02-28T06:30:08;1.69;68.35
19536;HTU21D;9913;51.168;4.124;2023-02-28T06:32:37;1.71;68.26
19536;HTU21D;9913;51.168;4.124;2023-02-28T06:35:06;1.64;67.74
19536;HTU21D;9913;51.168;4.124;2023-02-28T06:37:36;1.58;67.65
19536;HTU21D;9913;51.168;4.124;2023-02-28T06:40:08;1.62;67.68
19536;HTU21D;9913;51.168;4.124;2023-02-28T06:42:38;1.56;68.02
19536;HTU21D;9913;51.168;4.124;2023-02-28T06:45:07;1.68;68.47
19536;HTU21D;9913;51.168;4.124;2023-02-28T06:47:38;1.70;68.26
19536;HTU21D;9913;51.168;4.124;2023-02-28T06:50:08;1.77;68.52
19536;HTU21D;9913;51.168;4.124;2023-02-28T06:52:37;1.75;68.71
19536;HTU21D;9913;51.168;4.124;2023-02-28T06:55:07;1.69;68.36
19536;HTU21D;9913;51.168;4.124;2023-02-28T06:57:36;1.76;69.07
19536;HTU21D;9913;51.168;4.124;2023-02-28T07:00:07;1.76;68.69
19536;HTU21D;9913;51.168;4.124;2023-02-28T07:02:37;1.86;69.04
19536;HTU21D;9913;51.168;4.124;2023-02-28T07:05:06;1.90;69.20
19536;HTU21D;9913;51.168;4.124;2023-02-28T07:07:34;1.88;68.85
19536;HTU21D;9913;51.168;4.124;2023-02-28T07:10:05;1.91;68.98
19536;HTU21D;9913;51.168;4.124;2023-02-28T07:12:33;2.09;69.68
19536;HTU21D;9913;51.168;4.124;2023-02-28T07:15:02;1.98;68.18
19536;HTU21D;9913;51.168;4.124;2023-02-28T07:17:32;2.07;68.97
19536;HTU21D;9913;51.168;4.124;2023-02-28T07:20:00;2.19;68.97
19536;HTU21D;9913;51.168;4.124;2023-02-28T07:22:31;2.08;68.76
19536;HTU21D;9913;51.168;4.124;2023-02-28T07:24:59;2.25;68.64
19536;HTU21D;9913;51.168;4.124;2023-02-28T07:27:28;2.28;69.72
19536;HTU21D;9913;51.168;4.124;2023-02-28T07:29:56;2.31;68.75
19536;HTU21D;9913;51.168;4.124;2023-02-28T07:32:24;2.25;69.03
19536;HTU21D;9913;51.168;4.124;2023-02-28T07:34:54;2.28;68.59
19536;HTU21D;9913;51.168;4.124;2023-02-28T07:37:23;2.37;69.77
19536;HTU21D;9913;51.168;4.124;2023-02-28T07:39:51;2.43;69.44
19536;HTU21D;9913;51.168;4.124;2023-02-28T07:42:19;2.50;68.55
19536;HTU21D;9913;51.168;4.124;2023-02-28T07:44:50;2.58;69.86
19536;HTU21D;9913;51.168;4.124;2023-02-28T07:47:20;2.60;69.00
19536;HTU21D;9913;51.168;4.124;2023-02-28T07:49:51;2.69;69.58
19536;HTU21D;9913;51.168;4.124;2023-02-28T07:52:21;2.73;69.55
19536;HTU21D;9913;51.168;4.124;2023-02-28T07:54:50;2.70;69.29
19536;HTU21D;9913;51.168;4.124;2023-02-28T07:57:19;2.74;68.23
19536;HTU21D;9913;51.168;4.124;2023-02-28T07:59:47;2.75;69.56
19536;HTU21D;9913;51.168;4.124;2023-02-28T08:02:17;2.78;69.78
19536;HTU21D;9913;51.168;4.124;2023-02-28T08:04:46;2.85;69.13
19536;HTU21D;9913;51.168;4.124;2023-02-28T08:07:17;2.97;69.84
19536;HTU21D;9913;51.168;4.124;2023-02-28T08:09:47;3.06;69.55
19536;HTU21D;9913;51.168;4.124;2023-02-28T08:12:15;3.11;70.02
19536;HTU21D;9913;51.168;4.124;2023-02-28T08:14:43;2.89;69.29
19536;HTU21D;9913;51.168;4.124;2023-02-28T08:17:20;3.00;70.16
19536;HTU21D;9913;51.168;4.124;2023-02-28T08:20:09;3.18;69.72
19536;HTU21D;9913;51.168;4.124;2023-02-28T08:22:38;3.16;70.45
19536;HTU21D;9913;51.168;4.124;2023-02-28T08:25:08;3.20;69.78
19536;HTU21D;9913;51.168;4.124;2023-02-28T08:27:37;3.29;70.13
19536;HTU21D;9913;51.168;4.124;2023-02-28T08:30:07;3.38;71.30
19536;HTU21D;9913;51.168;4.124;2023-02-28T08:32:37;3.40;70.64
19536;HTU21D;9913;51.168;4.124;2023-02-28T08:35:06;3.45;71.90
19536;HTU21D;9913;51.168;4.124;2023-02-28T08:37:36;3.43;69.94
19536;HTU21D;9913;51.168;4.124;2023-02-28T08:40:06;3.53;71.15
19536;HTU21D;9913;51.168;4.124;2023-02-28T08:42:36;3.57;71.06
19536;HTU21D;9913;51.168;4.124;2023-02-28T08:45:06;3.48;70.41
19536;HTU21D;9913;51.168;4.124;2023-02-28T08:47:34;3.32;69.87
19536;HTU21D;9913;51.168;4.124;2023-02-28T08:50:03;3.29;70.62
19536;HTU21D;9913;51.168;4.124;2023-02-28T08:52:31;3.32;70.43
19536;HTU21D;9913;51.168;4.124;2023-02-28T08:54:59;3.25;70.10
19536;HTU21D;9913;51.168;4.124;2023-02-28T08:57:27;3.39;70.97
19536;HTU21D;9913;51.168;4.124;2023-02-28T08:59:57;3.45;71.45
19536;HTU21D;9913;51.168;4.124;2023-02-28T09:02:25;3.34;70.19
19536;HTU21D;9913;51.168;4.124;2023-02-28T09:04:54;3.24;68.77
19536;HTU21D;9913;51.168;4.124;2023-02-28T09:07:22;3.41;68.98
19536;HTU21D;9913;51.168;4.124;2023-02-28T09:09:51;3.56;68.97
19536;HTU21D;9913;51.168;4.124;2023-02-28T09:12:22;3.60;69.45
19536;HTU21D;9913;51.168;4.124;2023-02-28T09:14:51;3.76;68.54
19536;HTU21D;9913;51.168;4.124;2023-02-28T09:17:21;3.79;69.65
19536;HTU21D;9913;51.168;4.124;2023-02-28T09:19:49;3.94;70.29
19536;HTU21D;9913;51.168;4.124;2023-02-28T09:22:18;3.97;69.81
19536;HTU21D;9913;51.168;4.124;2023-02-28T09:24:46;4.19;70.99
19536;HTU21D;9913;51.168;4.124;2023-02-28T09:27:14;4.24;71.49
19536;HTU21D;9913;51.168;4.124;2023-02-28T09:29:42;4.30;98.42
19536;HTU21D;9913;51.168;4.124;2023-02-28T09:32:11;4.32;98.45
19536;HTU21D;9913;51.168;4.124;2023-02-28T09:34:40;4.63;97.16
19536;HTU21D;9913;51.168;4.124;2023-02-28T09:37:09;4.69;97.03
19536;HTU21D;9913;51.168;4.124;2023-02-28T09:39:37;4.59;96.86
19536;HTU21D;9913;51.168;4.124;2023-02-28T09:42:11;4.46;96.81
19536;HTU21D;9913;51.168;4.124;2023-02-28T09:44:44;4.60;97.28
19536;HTU21D;9913;51.168;4.124;2023-02-28T09:47:20;4.72;95.21
19536;HTU21D;9913;51.168;4.124;2023-02-28T09:49:51;4.78;94.81
19536;HTU21D;9913;51.168;4.124;2023-02-28T09:52:29;4.59;92.54
19536;HTU21D;9913;51.168;4.124;2023-02-28T09:55:01;4.48;92.69
19536;HTU21D;9913;51.168;4.124;2023-02-28T09:57:37;4.45;92.55
19536;HTU21D;9913;51.168;4.124;2023-02-28T10:00:14;4.58;92.81
19536;HTU21D;9913;51.168;4.124;2023-02-28T10:03:04;4.67;92.44
19536;HTU21D;9913;51.168;4.124;2023-02-28T10:05:39;4.94;93.64
19536;HTU21D;9913;51.168;4.124;2023-02-28T10:08:13;4.94;92.77
19536;HTU21D;9913;51.168;4.124;2023-02-28T10:10:44;4.95;93.16
19536;HTU21D;9913;51.168;4.124;2023-02-28T10:13:17;5.15;92.93
19536;HTU21D;9913;51.168;4.124;2023-02-28T10:15:52;5.41;93.74
19536;HTU21D;9913;51.168;4.124;2023-02-28T10:18:25;5.62;93.40
19536;HTU21D;9913;51.168;4.124;2023-02-28T10:20:56;5.66;92.54
19536;HTU21D;9913;51.168;4.124;2023-02-28T10:23:28;5.66;92.92
19536;HTU21D;9913;51.168;4.124;2023-02-28T10:26:00;5.35;91.50
19536;HTU21D;9913;51.168;4.124;2023-02-28T10:28:29;5.51;92.54
19536;HTU21D;9913;51.168;4.124;2023-02-28T10:30:58;5.70;92.95
19536;HTU21D;9913;51.168;4.124;2023-02-28T10:33:29;5.79;92.75
19536;HTU21D;9913;51.168;4.124;2023-02-28T10:36:00;5.93;92.08
19536;HTU21D;9913;51.168;4.124;2023-02-28T10:38:32;5.93;93.24
19536;HTU21D;9913;51.168;4.124;2023-02-28T10:41:04;5.81;90.78
19536;HTU21D;9913;51.168;4.124;2023-02-28T10:43:35;6.14;92.40
19536;HTU21D;9913;51.168;4.124;2023-02-28T10:46:11;6.38;93.11
19536;HTU21D;9913;51.168;4.124;2023-02-28T10:48:44;6.75;91.03
19536;HTU21D;9913;51.168;4.124;2023-02-28T10:51:18;6.61;91.63
19536;HTU21D;9913;51.168;4.124;2023-02-28T10:53:51;6.91;90.44
19536;HTU21D;9913;51.168;4.124;2023-02-28T10:56:29;6.70;87.85
19536;HTU21D;9913;51.168;4.124;2023-02-28T10:58:59;6.66;87.27
19536;HTU21D;9913;51.168;4.124;2023-02-28T11:01:36;7.07;87.18
19536;HTU21D;9913;51.168;4.124;2023-02-28T11:04:17;6.64;85.34
19536;HTU21D;9913;51.168;4.124;2023-02-28T11:06:47;6.34;86.15
19536;HTU21D;9913;51.168;4.124;2023-02-28T11:09:20;6.35;86.28
19536;HTU21D;9913;51.168;4.124;2023-02-28T11:11:51;6.36;87.01
19536;HTU21D;9913;51.168;4.124;2023-02-28T11:14:21;6.23;86.23
19536;HTU21D;9913;51.168;4.124;2023-02-28T11:16:51;6.19;85.80
19536;HTU21D;9913;51.168;4.124;2023-02-28T11:19:23;6.58;86.09
19536;HTU21D;9913;51.168;4.124;2023-02-28T11:21:57;6.68;85.13
19536;HTU21D;9913;51.168;4.124;2023-02-28T11:24:30;6.46;85.11
19536;HTU21D;9913;51.168;4.124;2023-02-28T11:26:59;6.29;83.31
19536;HTU21D;9913;51.168;4.124;2023-02-28T11:29:29;6.45;83.96
19536;HTU21D;9913;51.168;4.124;2023-02-28T11:32:09;6.29;82.20
19536;HTU21D;9913;51.168;4.124;2023-02-28T11:34:40;6.30;82.44
19536;HTU21D;9913;51.168;4.124;2023-02-28T11:37:15;6.22;82.56
19536;HTU21D;9913;51.168;4.124;2023-02-28T11:39:45;6.46;83.23
19536;HTU21D;9913;51.168;4.124;2023-02-28T11:42:28;6.35;82.72
19536;HTU21D;9913;51.168;4.124;2023-02-28T11:45:13;6.43;82.85
19536;HTU21D;9913;51.168;4.124;2023-02-28T11:47:48;6.37;82.22
19536;HTU21D;9913;51.168;4.124;2023-02-28T11:50:22;6.10;81.30
19536;HTU21D;9913;51.168;4.124;2023-02-28T11:52:57;6.27;81.49
19536;HTU21D;9913;51.168;4.124;2023-02-28T11:55:31;6.27;81.73
19536;HTU21D;9913;51.168;4.124;2023-02-28T11:58:19;6.49;81.80
19536;HTU21D;9913;51.168;4.124;2023-02-28T12:01:03;6.50;80.75
19536;HTU21D;9913;51.168;4.124;2023-02-28T12:03:44;6.33;80.42
19536;HTU21D;9913;51.168;4.124;2023-02-28T12:06:22;6.72;79.66
19536;HTU21D;9913;51.168;4.124;2023-02-28T12:09:03;6.57;77.83
19536;HTU21D;9913;51.168;4.124;2023-02-28T12:11:43;6.88;79.50
19536;HTU21D;9913;51.168;4.124;2023-02-28T12:17:21;6.49;78.68
19536;HTU21D;9913;51.168;4.124;2023-02-28T12:20:02;6.72;77.75
19536;HTU21D;9913;51.168;4.124;2023-02-28T12:22:35;6.64;74.93
19536;HTU21D;9913;51.168;4.124;2023-02-28T12:25:22;6.38;74.25
19536;HTU21D;9913;51.168;4.124;2023-02-28T12:27:52;6.35;74.05
19536;HTU21D;9913;51.168;4.124;2023-02-28T12:30:23;6.60;76.70
19536;HTU21D;9913;51.168;4.124;2023-02-28T12:32:55;6.52;75.15
19536;HTU21D;9913;51.168;4.124;2023-02-28T12:35:27;6.74;74.88
19536;HTU21D;9913;51.168;4.124;2023-02-28T12:38:01;6.75;74.15
19536;HTU21D;9913;51.168;4.124;2023-02-28T12:40:42;6.79;74.57
19536;HTU21D;9913;51.168;4.124;2023-02-28T12:43:13;6.80;74.62
19536;HTU21D;9913;51.168;4.124;2023-02-28T12:45:45;6.91;74.69
19536;HTU21D;9913;51.168;4.124;2023-02-28T12:48:22;6.89;74.39
19536;HTU21D;9913;51.168;4.124;2023-02-28T12:50:52;6.84;74.78
19536;HTU21D;9913;51.168;4.124;2023-02-28T12:53:25;6.87;74.40
19536;HTU21D;9913;51.168;4.124;2023-02-28T12:56:07;6.79;75.02
19536;HTU21D;9913;51.168;4.124;2023-02-28T12:58:39;6.78;73.76
19536;HTU21D;9913;51.168;4.124;2023-02-28T13:01:36;6.80;73.80
19536;HTU21D;9913;51.168;4.124;2023-02-28T13:04:31;6.66;72.74
19536;HTU21D;9913;51.168;4.124;2023-02-28T13:07:11;6.68;73.74
19536;HTU21D;9913;51.168;4.124;2023-02-28T13:09:52;6.78;73.96
19536;HTU21D;9913;51.168;4.124;2023-02-28T13:12:22;6.44;73.10
19536;HTU21D;9913;51.168;4.124;2023-02-28T13:14:51;6.65;74.25
19536;HTU21D;9913;51.168;4.124;2023-02-28T13:17:28;6.61;74.07
19536;HTU21D;9913;51.168;4.124;2023-02-28T13:19:58;7.03;74.04
19536;HTU21D;9913;51.168;4.124;2023-02-28T13:22:39;6.59;73.37
19536;HTU21D;9913;51.168;4.124;2023-02-28T13:31:33;6.95;72.99
19536;HTU21D;9913;51.168;4.124;2023-02-28T13:34:21;7.07;73.52
19536;HTU21D;9913;51.168;4.124;2023-02-28T13:36:49;7.30;73.64
19536;HTU21D;9913;51.168;4.124;2023-02-28T13:39:46;7.17;72.58
19536;HTU21D;9913;51.168;4.124;2023-02-28T13:42:34;6.99;72.35
19536;HTU21D;9913;51.168;4.124;2023-02-28T13:45:27;6.81;72.41
19536;HTU21D;9913;51.168;4.124;2023-02-28T13:48:00;6.58;72.35
19536;HTU21D;9913;51.168;4.124;2023-02-28T13:50:35;6.59;72.24
19536;HTU21D;9913;51.168;4.124;2023-02-28T13:53:34;6.82;72.38
19536;HTU21D;9913;51.168;4.124;2023-02-28T13:56:19;6.64;73.12
19536;HTU21D;9913;51.168;4.124;2023-02-28T13:58:54;6.69;73.97
19536;HTU21D;9913;51.168;4.124;2023-02-28T14:01:41;6.52;72.45
19536;HTU21D;9913;51.168;4.124;2023-02-28T14:04:32;6.78;74.46
19536;HTU21D;9913;51.168;4.124;2023-02-28T14:07:08;6.63;73.63
19536;HTU21D;9913;51.168;4.124;2023-02-28T14:09:40;6.52;73.32
19536;HTU21D;9913;51.168;4.124;2023-02-28T14:15:39;6.66;73.80
19536;HTU21D;9913;51.168;4.124;2023-02-28T14:18:19;6.93;73.56
19536;HTU21D;9913;51.168;4.124;2023-02-28T14:20:54;6.73;72.90
19536;HTU21D;9913;51.168;4.124;2023-02-28T14:23:38;6.74;72.65
19536;HTU21D;9913;51.168;4.124;2023-02-28T14:26:17;6.74;74.03
19536;HTU21D;9913;51.168;4.124;2023-02-28T14:28:59;6.69;73.11
19536;HTU21D;9913;51.168;4.124;2023-02-28T14:31:34;6.73;74.67
19536;HTU21D;9913;51.168;4.124;2023-02-28T14:34:19;6.69;74.70
19536;HTU21D;9913;51.168;4.124;2023-02-28T14:36:52;6.56;74.27
19536;HTU21D;9913;51.168;4.124;2023-02-28T14:39:22;6.55;74.16
19536;HTU21D;9913;51.168;4.124;2023-02-28T14:41:53;6.63;74.57
19536;HTU21D;9913;51.168;4.124;2023-02-28T14:44:22;6.31;74.43
19536;HTU21D;9913;51.168;4.124;2023-02-28T14:46:53;6.52;75.27
19536;HTU21D;9913;51.168;4.124;2023-02-28T14:49:28;6.50;74.93
19536;HTU21D;9913;51.168;4.124;2023-02-28T14:52:07;6.84;75.08
19536;HTU21D;9913;51.168;4.124;2023-02-28T14:54:40;6.61;74.63
19536;HTU21D;9913;51.168;4.124;2023-02-28T14:57:21;6.85;74.73
19536;HTU21D;9913;51.168;4.124;2023-02-28T14:59:58;6.70;74.31
19536;HTU21D;9913;51.168;4.124;2023-02-28T15:02:31;7.00;74.33
19536;HTU21D;9913;51.168;4.124;2023-02-28T15:05:01;7.04;74.22
19536;HTU21D;9913;51.168;4.124;2023-02-28T15:07:31;6.76;73.45
19536;HTU21D;9913;51.168;4.124;2023-02-28T15:10:21;6.40;74.64
19536;HTU21D;9913;51.168;4.124;2023-02-28T15:12:53;6.33;75.09
19536;HTU21D;9913;51.168;4.124;2023-02-28T15:15:26;6.39;74.99
19536;HTU21D;9913;51.168;4.124;2023-02-28T15:18:17;6.27;75.66
19536;HTU21D;9913;51.168;4.124;2023-02-28T15:20:50;6.33;75.31
19536;HTU21D;9913;51.168;4.124;2023-02-28T15:23:21;6.61;74.92
19536;HTU21D;9913;51.168;4.124;2023-02-28T15:25:50;7.19;74.31
19536;HTU21D;9913;51.168;4.124;2023-02-28T15:28:21;7.77;72.58
19536;HTU21D;9913;51.168;4.124;2023-02-28T15:30:52;8.16;72.09
19536;HTU21D;9913;51.168;4.124;2023-02-28T15:33:22;7.93;72.06
19536;HTU21D;9913;51.168;4.124;2023-02-28T15:36:03;7.26;72.34
19536;HTU21D;9913;51.168;4.124;2023-02-28T15:38:35;7.03;73.64
19536;HTU21D;9913;51.168;4.124;2023-02-28T15:41:04;7.14;73.61
19536;HTU21D;9913;51.168;4.124;2023-02-28T15:43:36;7.07;73.26
19536;HTU21D;9913;51.168;4.124;2023-02-28T15:46:06;7.02;73.57
19536;HTU21D;9913;51.168;4.124;2023-02-28T15:48:43;6.33;74.93
19536;HTU21D;9913;51.168;4.124;2023-02-28T15:51:18;5.95;76.14
19536;HTU21D;9913;51.168;4.124;2023-02-28T15:53:50;5.93;77.18
19536;HTU21D;9913;51.168;4.124;2023-02-28T15:56:24;5.72;76.94
19536;HTU21D;9913;51.168;4.124;2023-02-28T15:58:53;5.71;77.03
19536;HTU21D;9913;51.168;4.124;2023-02-28T16:01:25;5.52;77.18
19536;HTU21D;9913;51.168;4.124;2023-02-28T16:03:58;5.36;77.82
19536;HTU21D;9913;51.168;4.124;2023-02-28T16:06:36;5.36;78.08
19536;HTU21D;9913;51.168;4.124;2023-02-28T16:09:10;5.39;78.38
19536;HTU21D;9913;51.168;4.124;2023-02-28T16:11:43;5.24;78.11
19536;HTU21D;9913;51.168;4.124;2023-02-28T16:14:16;5.13;77.90
19536;HTU21D;9913;51.168;4.124;2023-02-28T16:16:46;5.12;78.56
19536;HTU21D;9913;51.168;4.124;2023-02-28T16:19:15;5.07;78.69
19536;HTU21D;9913;51.168;4.124;2023-02-28T16:21:43;5.00;79.56
19536;HTU21D;9913;51.168;4.124;2023-02-28T16:24:13;4.96;79.09
19536;HTU21D;9913;51.168;4.124;2023-02-28T16:26:45;4.90;79.18
19536;HTU21D;9913;51.168;4.124;2023-02-28T16:29:20;4.92;79.37
19536;HTU21D;9913;51.168;4.124;2023-02-28T16:31:50;4.87;79.10
19536;HTU21D;9913;51.168;4.124;2023-02-28T16:34:20;4.79;79.98
19536;HTU21D;9913;51.168;4.124;2023-02-28T16:36:49;4.76;80.17